Avalon, California
Current Conditions -  °F | °C
As of 11:51 AM on Sunday 21 Dec 2014 (Local Time) from KAVX Reporting Station
Clear Clear  
Wind Chill: 60°   Ceiling: Unl
Heat Index: 60°   Visibility: 9mi
Dew Point: 54°   Wind: 5mph
Humidity: 80%   Direction: 230°SW
Pressure: 30.13"   Gusts: NA
Location:  33.34°N, 118.33°W
Report Text: KAVX 211951Z AUTO 23004KT 9SM CLR 16/12 A3013 RMK AO2 SLP197 T01560122
Loading
Personal Weather Stations






























Interactive Weather Map New forecast layout! Learn more

10-Day Weather Forecast

Advertisements
Track Severe Weather on mobile